sensor_id;sensor_type;location;lat;lon;timestamp;pressure;altitude;pressure_sealevel;temperature;humidity
44138;BME280;29800;55.942;37.314;2023-08-20T00:01:43;99942.53;;;20.30;83.88
44138;BME280;29800;55.942;37.314;2023-08-20T00:04:10;99937.09;;;20.25;84.04
44138;BME280;29800;55.942;37.314;2023-08-20T00:06:36;99933.28;;;20.21;84.16
44138;BME280;29800;55.942;37.314;2023-08-20T00:09:03;99933.91;;;20.18;84.14
44138;BME280;29800;55.942;37.314;2023-08-20T00:11:30;99930.59;;;20.16;84.38
44138;BME280;29800;55.942;37.314;2023-08-20T00:13:57;99921.75;;;20.14;84.76
44138;BME280;29800;55.942;37.314;2023-08-20T00:16:23;99911.56;;;20.09;84.56
44138;BME280;29800;55.942;37.314;2023-08-20T00:18:50;99907.44;;;20.07;84.72
44138;BME280;29800;55.942;37.314;2023-08-20T00:21:16;99911.69;;;20.04;84.79
44138;BME280;29800;55.942;37.314;2023-08-20T00:23:43;99902.00;;;20.01;84.84
44138;BME280;29800;55.942;37.314;2023-08-20T00:26:09;99896.56;;;19.96;84.90
44138;BME280;29800;55.942;37.314;2023-08-20T00:28:36;99897.16;;;19.93;85.07
44138;BME280;29800;55.942;37.314;2023-08-20T00:31:04;99890.28;;;19.91;85.02
44138;BME280;29800;55.942;37.314;2023-08-20T00:33:33;99880.00;;;19.91;85.31
44138;BME280;29800;55.942;37.314;2023-08-20T00:36:00;99890.06;;;19.87;85.20
44138;BME280;29800;55.942;37.314;2023-08-20T00:38:26;99883.69;;;19.87;85.11
44138;BME280;29800;55.942;37.314;2023-08-20T00:40:53;99886.78;;;19.85;85.06
44138;BME280;29800;55.942;37.314;2023-08-20T00:43:20;99887.94;;;19.84;85.12
44138;BME280;29800;55.942;37.314;2023-08-20T00:45:48;99896.56;;;19.82;85.03
44138;BME280;29800;55.942;37.314;2023-08-20T00:48:16;99906.84;;;19.82;84.88
44138;BME280;29800;55.942;37.314;2023-08-20T00:50:43;99909.63;;;19.82;85.14
44138;BME280;29800;55.942;37.314;2023-08-20T00:53:11;99904.59;;;19.84;85.29
44138;BME280;29800;55.942;37.314;2023-08-20T00:55:37;99885.75;;;19.95;85.63
44138;BME280;29800;55.942;37.314;2023-08-20T00:58:05;99885.06;;;19.89;85.88
44138;BME280;29800;55.942;37.314;2023-08-20T01:00:32;99892.22;;;19.90;85.63
44138;BME280;29800;55.942;37.314;2023-08-20T01:02:59;99882.28;;;19.89;85.81
44138;BME280;29800;55.942;37.314;2023-08-20T01:05:26;99886.69;;;19.90;85.53
44138;BME280;29800;55.942;37.314;2023-08-20T01:10:34;99898.31;;;19.92;85.67
44138;BME280;29800;55.942;37.314;2023-08-20T01:13:06;99886.38;;;19.92;85.57
44138;BME280;29800;55.942;37.314;2023-08-20T01:15:33;99878.34;;;19.90;85.67
44138;BME280;29800;55.942;37.314;2023-08-20T01:17:59;99869.31;;;19.85;85.64
44138;BME280;29800;55.942;37.314;2023-08-20T01:20:30;99881.44;;;19.89;86.26
44138;BME280;29800;55.942;37.314;2023-08-20T01:23:17;99884.50;;;19.87;86.27
44138;BME280;29800;55.942;37.314;2023-08-20T01:25:57;99887.63;;;19.99;86.40
44138;BME280;29800;55.942;37.314;2023-08-20T01:28:30;99889.88;;;19.97;86.29
44138;BME280;29800;55.942;37.314;2023-08-20T01:30:59;99865.50;;;19.94;86.09
44138;BME280;29800;55.942;37.314;2023-08-20T01:33:27;99860.56;;;19.91;86.21
44138;BME280;29800;55.942;37.314;2023-08-20T01:35:54;99860.56;;;19.91;86.51
44138;BME280;29800;55.942;37.314;2023-08-20T01:38:22;99860.06;;;19.89;86.32
44138;BME280;29800;55.942;37.314;2023-08-20T01:40:48;99862.72;;;19.94;86.85
44138;BME280;29800;55.942;37.314;2023-08-20T01:43:15;99864.16;;;19.92;86.66
44138;BME280;29800;55.942;37.314;2023-08-20T01:45:41;99865.63;;;19.89;86.37
44138;BME280;29800;55.942;37.314;2023-08-20T01:48:08;99861.19;;;19.88;86.59
44138;BME280;29800;55.942;37.314;2023-08-20T01:50:35;99859.81;;;19.86;86.66
44138;BME280;29800;55.942;37.314;2023-08-20T01:53:02;99851.56;;;20.22;86.25
44138;BME280;29800;55.942;37.314;2023-08-20T01:55:30;99848.50;;;20.10;85.82
44138;BME280;29800;55.942;37.314;2023-08-20T01:57:57;99858.19;;;20.12;85.54
44138;BME280;29800;55.942;37.314;2023-08-20T02:00:23;99857.34;;;20.12;85.82
44138;BME280;29800;55.942;37.314;2023-08-20T02:02:49;99865.59;;;20.17;85.85
44138;BME280;29800;55.942;37.314;2023-08-20T02:05:16;99861.88;;;20.08;85.81
44138;BME280;29800;55.942;37.314;2023-08-20T02:07:42;99869.72;;;20.06;85.70
44138;BME280;29800;55.942;37.314;2023-08-20T02:12:35;99874.44;;;19.91;85.91
44138;BME280;29800;55.942;37.314;2023-08-20T02:15:03;99872.41;;;19.83;86.16
44138;BME280;29800;55.942;37.314;2023-08-20T02:17:33;99864.97;;;19.78;86.70
44138;BME280;29800;55.942;37.314;2023-08-20T02:20:02;99866.03;;;19.82;87.29
44138;BME280;29800;55.942;37.314;2023-08-20T02:22:31;99873.41;;;19.87;87.52
44138;BME280;29800;55.942;37.314;2023-08-20T02:25:00;99886.28;;;19.83;87.38
44138;BME280;29800;55.942;37.314;2023-08-20T02:27:29;99895.63;;;19.87;87.46
44138;BME280;29800;55.942;37.314;2023-08-20T02:29:55;99905.09;;;19.86;87.22
44138;BME280;29800;55.942;37.314;2023-08-20T02:32:22;99897.25;;;20.02;86.67
44138;BME280;29800;55.942;37.314;2023-08-20T02:34:51;99898.06;;;20.30;85.84
44138;BME280;29800;55.942;37.314;2023-08-20T02:37:18;99890.13;;;20.37;85.38
44138;BME280;29800;55.942;37.314;2023-08-20T02:39:45;99879.47;;;20.67;84.58
44138;BME280;29800;55.942;37.314;2023-08-20T02:42:11;99885.31;;;21.02;83.22
44138;BME280;29800;55.942;37.314;2023-08-20T02:44:37;99883.91;;;20.91;82.16
44138;BME280;29800;55.942;37.314;2023-08-20T02:47:04;99893.66;;;20.80;82.16
44138;BME280;29800;55.942;37.314;2023-08-20T02:49:30;99886.88;;;20.72;81.96
44138;BME280;29800;55.942;37.314;2023-08-20T02:51:57;99893.19;;;20.86;82.54
44138;BME280;29800;55.942;37.314;2023-08-20T02:54:23;99903.75;;;20.62;82.43
44138;BME280;29800;55.942;37.314;2023-08-20T02:56:52;99908.09;;;20.54;83.09
44138;BME280;29800;55.942;37.314;2023-08-20T02:59:18;99908.22;;;20.49;83.61
44138;BME280;29800;55.942;37.314;2023-08-20T03:01:45;99915.44;;;20.50;83.58
44138;BME280;29800;55.942;37.314;2023-08-20T03:04:11;99921.72;;;20.42;83.65
44138;BME280;29800;55.942;37.314;2023-08-20T03:06:37;99914.13;;;20.33;83.37
44138;BME280;29800;55.942;37.314;2023-08-20T03:09:03;99914.94;;;20.34;83.97
44138;BME280;29800;55.942;37.314;2023-08-20T03:11:30;99924.09;;;20.34;84.31
44138;BME280;29800;55.942;37.314;2023-08-20T03:13:56;99914.31;;;20.37;84.33
44138;BME280;29800;55.942;37.314;2023-08-20T03:16:22;99898.06;;;20.30;84.45
44138;BME280;29800;55.942;37.314;2023-08-20T03:18:49;99878.31;;;20.32;84.66
44138;BME280;29800;55.942;37.314;2023-08-20T03:21:15;99889.81;;;20.39;84.56
44138;BME280;29800;55.942;37.314;2023-08-20T03:23:41;99900.13;;;20.38;84.45
44138;BME280;29800;55.942;37.314;2023-08-20T03:26:08;99902.75;;;20.71;84.28
44138;BME280;29800;55.942;37.314;2023-08-20T03:28:34;99902.56;;;20.68;83.26
44138;BME280;29800;55.942;37.314;2023-08-20T03:31:01;99885.66;;;20.87;82.72
44138;BME280;29800;55.942;37.314;2023-08-20T03:33:30;99871.31;;;21.16;82.30
44138;BME280;29800;55.942;37.314;2023-08-20T03:35:57;99877.59;;;20.99;81.69
44138;BME280;29800;55.942;37.314;2023-08-20T03:38:23;99889.41;;;21.05;81.77
44138;BME280;29800;55.942;37.314;2023-08-20T03:40:49;99894.59;;;21.20;81.53
44138;BME280;29800;55.942;37.314;2023-08-20T03:43:16;99892.91;;;21.10;80.92
44138;BME280;29800;55.942;37.314;2023-08-20T03:45:42;99889.91;;;21.07;80.75
44138;BME280;29800;55.942;37.314;2023-08-20T03:48:08;99881.22;;;21.31;80.75
44138;BME280;29800;55.942;37.314;2023-08-20T03:50:35;99873.81;;;21.49;80.41
44138;BME280;29800;55.942;37.314;2023-08-20T03:53:01;99861.91;;;21.57;79.47
44138;BME280;29800;55.942;37.314;2023-08-20T03:55:27;99852.47;;;21.44;79.41
44138;BME280;29800;55.942;37.314;2023-08-20T03:57:55;99855.03;;;21.32;79.49
44138;BME280;29800;55.942;37.314;2023-08-20T04:00:21;99845.50;;;21.56;79.73
44138;BME280;29800;55.942;37.314;2023-08-20T04:02:47;99824.72;;;21.62;78.98
44138;BME280;29800;55.942;37.314;2023-08-20T04:05:14;99828.06;;;21.41;79.12
44138;BME280;29800;55.942;37.314;2023-08-20T04:07:40;99823.66;;;21.40;79.17
44138;BME280;29800;55.942;37.314;2023-08-20T04:10:07;99818.16;;;21.58;79.45
44138;BME280;29800;55.942;37.314;2023-08-20T04:12:36;99809.88;;;21.35;79.65
44138;BME280;29800;55.942;37.314;2023-08-20T04:15:02;99803.56;;;21.21;80.32
44138;BME280;29800;55.942;37.314;2023-08-20T04:17:31;99800.63;;;21.17;80.26
44138;BME280;29800;55.942;37.314;2023-08-20T04:19:58;99798.94;;;21.07;80.71
44138;BME280;29800;55.942;37.314;2023-08-20T04:22:24;99804.94;;;21.01;80.67
44138;BME280;29800;55.942;37.314;2023-08-20T04:24:52;99802.09;;;20.92;81.06
44138;BME280;29800;55.942;37.314;2023-08-20T04:27:19;99793.06;;;20.86;81.96
44138;BME280;29800;55.942;37.314;2023-08-20T04:29:45;99794.66;;;20.79;82.39
44138;BME280;29800;55.942;37.314;2023-08-20T04:32:11;99794.78;;;20.73;83.02
44138;BME280;29800;55.942;37.314;2023-08-20T04:34:37;99795.72;;;20.69;83.55
44138;BME280;29800;55.942;37.314;2023-08-20T04:37:04;99794.16;;;20.63;83.52
44138;BME280;29800;55.942;37.314;2023-08-20T04:39:30;99797.94;;;20.58;83.30
44138;BME280;29800;55.942;37.314;2023-08-20T04:41:56;99795.78;;;20.55;83.45
44138;BME280;29800;55.942;37.314;2023-08-20T04:44:23;99796.09;;;20.53;84.12
44138;BME280;29800;55.942;37.314;2023-08-20T04:46:53;99793.19;;;20.59;84.65
44138;BME280;29800;55.942;37.314;2023-08-20T04:49:20;99791.31;;;20.68;84.28
44138;BME280;29800;55.942;37.314;2023-08-20T04:51:46;99788.59;;;20.77;84.51
44138;BME280;29800;55.942;37.314;2023-08-20T04:54:12;99797.44;;;20.79;84.49
44138;BME280;29800;55.942;37.314;2023-08-20T04:56:39;99784.59;;;20.91;84.26
44138;BME280;29800;55.942;37.314;2023-08-20T04:59:06;99786.03;;;20.89;84.12
44138;BME280;29800;55.942;37.314;2023-08-20T05:01:55;99774.09;;;20.88;84.73
44138;BME280;29800;55.942;37.314;2023-08-20T05:04:42;99782.75;;;20.87;84.63
44138;BME280;29800;55.942;37.314;2023-08-20T05:07:08;99779.47;;;20.85;84.91
44138;BME280;29800;55.942;37.314;2023-08-20T05:09:35;99773.59;;;20.86;84.95
44138;BME280;29800;55.942;37.314;2023-08-20T05:12:01;99781.13;;;20.86;84.79
44138;BME280;29800;55.942;37.314;2023-08-20T05:14:29;99784.41;;;20.88;85.24
44138;BME280;29800;55.942;37.314;2023-08-20T05:16:56;99781.13;;;20.86;85.44
44138;BME280;29800;55.942;37.314;2023-08-20T05:19:22;99782.13;;;20.90;85.45
44138;BME280;29800;55.942;37.314;2023-08-20T05:21:48;99764.94;;;20.88;85.52
44138;BME280;29800;55.942;37.314;2023-08-20T05:24:15;99772.13;;;20.89;85.43
44138;BME280;29800;55.942;37.314;2023-08-20T05:26:41;99775.28;;;20.96;85.80
44138;BME280;29800;55.942;37.314;2023-08-20T05:29:08;99772.69;;;21.00;85.65
44138;BME280;29800;55.942;37.314;2023-08-20T05:31:34;99772.19;;;20.98;85.29
44138;BME280;29800;55.942;37.314;2023-08-20T05:34:00;99773.00;;;20.98;85.63
44138;BME280;29800;55.942;37.314;2023-08-20T05:36:27;99763.34;;;20.96;85.39
44138;BME280;29800;55.942;37.314;2023-08-20T05:38:53;99770.38;;;20.93;85.15
44138;BME280;29800;55.942;37.314;2023-08-20T05:41:20;99758.75;;;20.91;85.25
44138;BME280;29800;55.942;37.314;2023-08-20T05:43:46;99758.22;;;20.89;85.66
44138;BME280;29800;55.942;37.314;2023-08-20T05:46:13;99757.09;;;20.90;85.69
44138;BME280;29800;55.942;37.314;2023-08-20T05:48:39;99760.06;;;20.93;85.83
44138;BME280;29800;55.942;37.314;2023-08-20T05:51:05;99759.25;;;20.93;85.66
44138;BME280;29800;55.942;37.314;2023-08-20T05:53:32;99760.88;;;20.94;85.65
44138;BME280;29800;55.942;37.314;2023-08-20T05:55:58;99755.69;;;21.01;85.84
44138;BME280;29800;55.942;37.314;2023-08-20T05:58:26;99757.50;;;21.06;85.47
44138;BME280;29800;55.942;37.314;2023-08-20T06:00:53;99756.72;;;21.14;85.12
44138;BME280;29800;55.942;37.314;2023-08-20T06:03:19;99750.84;;;21.16;84.50
44138;BME280;29800;55.942;37.314;2023-08-20T06:05:45;99754.94;;;21.18;84.53
44138;BME280;29800;55.942;37.314;2023-08-20T06:08:12;99760.69;;;21.22;84.33
44138;BME280;29800;55.942;37.314;2023-08-20T06:10:38;99759.22;;;21.24;84.59
44138;BME280;29800;55.942;37.314;2023-08-20T06:13:04;99763.81;;;21.29;84.42
44138;BME280;29800;55.942;37.314;2023-08-20T06:15:30;99765.19;;;21.40;84.19
44138;BME280;29800;55.942;37.314;2023-08-20T06:17:57;99768.78;;;21.41;83.18
44138;BME280;29800;55.942;37.314;2023-08-20T06:20:23;99765.03;;;21.45;82.72
44138;BME280;29800;55.942;37.314;2023-08-20T06:22:49;99770.16;;;21.52;83.40
44138;BME280;29800;55.942;37.314;2023-08-20T06:25:16;99762.13;;;21.59;83.10
44138;BME280;29800;55.942;37.314;2023-08-20T06:27:42;99759.88;;;21.70;82.37
44138;BME280;29800;55.942;37.314;2023-08-20T06:30:09;99758.13;;;21.83;82.62
44138;BME280;29800;55.942;37.314;2023-08-20T06:32:35;99757.63;;;21.90;82.21
44138;BME280;29800;55.942;37.314;2023-08-20T06:35:01;99750.13;;;21.99;81.79
44138;BME280;29800;55.942;37.314;2023-08-20T06:37:29;99751.09;;;22.03;81.28
44138;BME280;29800;55.942;37.314;2023-08-20T06:39:55;99748.78;;;22.05;80.21
44138;BME280;29800;55.942;37.314;2023-08-20T06:42:22;99746.50;;;22.07;80.32
44138;BME280;29800;55.942;37.314;2023-08-20T06:44:49;99742.56;;;22.08;79.95
44138;BME280;29800;55.942;37.314;2023-08-20T06:47:15;99739.13;;;22.11;80.78
44138;BME280;29800;55.942;37.314;2023-08-20T06:49:41;99742.22;;;22.18;80.54
44138;BME280;29800;55.942;37.314;2023-08-20T06:52:07;99739.31;;;22.24;80.37
44138;BME280;29800;55.942;37.314;2023-08-20T06:54:34;99728.31;;;22.27;79.98
44138;BME280;29800;55.942;37.314;2023-08-20T06:57:00;99732.59;;;22.33;79.45
44138;BME280;29800;55.942;37.314;2023-08-20T06:59:27;99726.84;;;22.38;79.40
44138;BME280;29800;55.942;37.314;2023-08-20T07:01:53;99733.72;;;22.41;79.59
44138;BME280;29800;55.942;37.314;2023-08-20T07:04:19;99729.81;;;22.42;79.10
44138;BME280;29800;55.942;37.314;2023-08-20T07:06:46;99727.81;;;22.51;79.55
44138;BME280;29800;55.942;37.314;2023-08-20T07:09:12;99724.19;;;22.60;79.20
44138;BME280;29800;55.942;37.314;2023-08-20T07:11:39;99722.19;;;22.69;78.50
44138;BME280;29800;55.942;37.314;2023-08-20T07:14:05;99719.56;;;22.81;78.80
44138;BME280;29800;55.942;37.314;2023-08-20T07:16:31;99719.19;;;22.91;78.24
44138;BME280;29800;55.942;37.314;2023-08-20T07:18:58;99719.97;;;23.01;77.00
44138;BME280;29800;55.942;37.314;2023-08-20T07:21:25;99716.38;;;23.09;77.31
44138;BME280;29800;55.942;37.314;2023-08-20T07:23:51;99721.44;;;23.16;76.36
44138;BME280;29800;55.942;37.314;2023-08-20T07:26:18;99719.72;;;23.23;77.37
44138;BME280;29800;55.942;37.314;2023-08-20T07:28:44;99713.28;;;23.31;76.81
44138;BME280;29800;55.942;37.314;2023-08-20T07:31:24;99704.22;;;23.43;76.11
44138;BME280;29800;55.942;37.314;2023-08-20T07:33:51;99702.47;;;23.60;75.54
44138;BME280;29800;55.942;37.314;2023-08-20T07:36:19;99695.66;;;23.70;74.87
44138;BME280;29800;55.942;37.314;2023-08-20T07:38:48;99696.72;;;23.86;74.44
44138;BME280;29800;55.942;37.314;2023-08-20T07:41:15;99695.63;;;23.99;74.00
44138;BME280;29800;55.942;37.314;2023-08-20T07:43:41;99697.78;;;24.15;73.54
44138;BME280;29800;55.942;37.314;2023-08-20T07:46:08;99695.06;;;24.27;72.65
44138;BME280;29800;55.942;37.314;2023-08-20T07:48:35;99695.38;;;24.47;72.07
44138;BME280;29800;55.942;37.314;2023-08-20T07:51:02;99697.28;;;24.67;70.07
44138;BME280;29800;55.942;37.314;2023-08-20T07:53:29;99690.13;;;24.91;69.77
44138;BME280;29800;55.942;37.314;2023-08-20T07:55:56;99693.63;;;25.00;67.89
44138;BME280;29800;55.942;37.314;2023-08-20T07:58:22;99695.50;;;25.08;67.60
44138;BME280;29800;55.942;37.314;2023-08-20T08:00:49;99698.31;;;25.21;66.82
44138;BME280;29800;55.942;37.314;2023-08-20T08:03:15;99694.13;;;25.39;65.52
44138;BME280;29800;55.942;37.314;2023-08-20T08:05:48;99698.06;;;25.63;65.06
44138;BME280;29800;55.942;37.314;2023-08-20T08:08:16;99693.16;;;25.72;63.89
44138;BME280;29800;55.942;37.314;2023-08-20T08:10:44;99682.63;;;25.81;63.85
44138;BME280;29800;55.942;37.314;2023-08-20T08:13:14;99678.38;;;26.00;63.09
44138;BME280;29800;55.942;37.314;2023-08-20T08:15:41;99669.06;;;26.24;61.55
44138;BME280;29800;55.942;37.314;2023-08-20T08:18:08;99669.00;;;26.36;61.14
44138;BME280;29800;55.942;37.314;2023-08-20T08:20:34;99666.41;;;26.59;61.32
44138;BME280;29800;55.942;37.314;2023-08-20T08:23:01;99666.03;;;26.73;60.96
44138;BME280;29800;55.942;37.314;2023-08-20T08:25:27;99659.94;;;26.87;59.87
44138;BME280;29800;55.942;37.314;2023-08-20T08:27:54;99656.78;;;27.05;59.49
44138;BME280;29800;55.942;37.314;2023-08-20T08:30:21;99655.50;;;27.18;58.34
44138;BME280;29800;55.942;37.314;2023-08-20T08:32:47;99645.06;;;27.19;57.16
44138;BME280;29800;55.942;37.314;2023-08-20T08:35:13;99653.06;;;27.32;59.57
44138;BME280;29800;55.942;37.314;2023-08-20T08:37:39;99643.88;;;27.52;59.17
44138;BME280;29800;55.942;37.314;2023-08-20T08:40:06;99642.38;;;27.58;57.82
44138;BME280;29800;55.942;37.314;2023-08-20T08:42:33;99644.28;;;27.69;56.32
44138;BME280;29800;55.942;37.314;2023-08-20T08:45:00;99643.50;;;27.73;55.90
44138;BME280;29800;55.942;37.314;2023-08-20T08:47:30;99642.56;;;27.84;56.19
44138;BME280;29800;55.942;37.314;2023-08-20T08:49:57;99640.13;;;27.83;54.54
44138;BME280;29800;55.942;37.314;2023-08-20T08:52:23;99634.38;;;27.95;55.26
44138;BME280;29800;55.942;37.314;2023-08-20T08:54:49;99636.13;;;27.84;56.25
44138;BME280;29800;55.942;37.314;2023-08-20T08:57:16;99648.59;;;28.02;56.47
44138;BME280;29800;55.942;37.314;2023-08-20T08:59:42;99647.56;;;28.11;53.26
44138;BME280;29800;55.942;37.314;2023-08-20T09:02:10;99655.53;;;28.28;53.49
44138;BME280;29800;55.942;37.314;2023-08-20T09:04:40;99651.09;;;28.27;53.81
44138;BME280;29800;55.942;37.314;2023-08-20T09:07:15;99650.94;;;28.20;52.41
44138;BME280;29800;55.942;37.314;2023-08-20T09:09:42;99652.28;;;28.07;51.39
44138;BME280;29800;55.942;37.314;2023-08-20T09:12:17;99656.28;;;28.05;51.58
44138;BME280;29800;55.942;37.314;2023-08-20T09:14:46;99654.88;;;28.15;51.76
44138;BME280;29800;55.942;37.314;2023-08-20T09:17:13;99655.69;;;28.16;53.07
44138;BME280;29800;55.942;37.314;2023-08-20T09:19:42;99643.28;;;28.40;50.82
44138;BME280;29800;55.942;37.314;2023-08-20T09:22:11;99639.50;;;28.52;50.12
44138;BME280;29800;55.942;37.314;2023-08-20T09:24:45;99625.41;;;28.71;50.70
44138;BME280;29800;55.942;37.314;2023-08-20T09:27:13;99614.72;;;28.84;49.62
44138;BME280;29800;55.942;37.314;2023-08-20T09:29:56;99619.47;;;29.03;49.79
44138;BME280;29800;55.942;37.314;2023-08-20T09:32:26;99615.22;;;29.13;50.62
44138;BME280;29800;55.942;37.314;2023-08-20T09:34:54;99609.31;;;29.22;49.66
44138;BME280;29800;55.942;37.314;2023-08-20T09:37:24;99623.88;;;29.24;50.59
44138;BME280;29800;55.942;37.314;2023-08-20T09:39:51;99621.16;;;29.08;48.98
44138;BME280;29800;55.942;37.314;2023-08-20T09:42:17;99615.69;;;28.92;48.69
44138;BME280;29800;55.942;37.314;2023-08-20T09:44:45;99619.66;;;28.91;48.62
44138;BME280;29800;55.942;37.314;2023-08-20T09:47:13;99622.06;;;28.89;49.35
44138;BME280;29800;55.942;37.314;2023-08-20T09:49:42;99624.50;;;28.90;48.66
44138;BME280;29800;55.942;37.314;2023-08-20T09:52:10;99626.78;;;28.81;50.67
44138;BME280;29800;55.942;37.314;2023-08-20T09:57:38;99624.63;;;28.74;51.17
44138;BME280;29800;55.942;37.314;2023-08-20T10:00:08;99621.59;;;28.60;51.98
44138;BME280;29800;55.942;37.314;2023-08-20T10:02:42;99611.88;;;28.57;52.85
44138;BME280;29800;55.942;37.314;2023-08-20T10:05:09;99615.78;;;28.53;52.10
44138;BME280;29800;55.942;37.314;2023-08-20T10:07:36;99610.97;;;28.53;52.46
44138;BME280;29800;55.942;37.314;2023-08-20T10:10:05;99614.53;;;28.50;51.66
44138;BME280;29800;55.942;37.314;2023-08-20T10:12:32;99611.34;;;28.52;52.54
44138;BME280;29800;55.942;37.314;2023-08-20T10:15:00;99613.28;;;28.48;52.09
44138;BME280;29800;55.942;37.314;2023-08-20T10:17:31;99600.00;;;28.48;50.46
44138;BME280;29800;55.942;37.314;2023-08-20T10:19:59;99596.06;;;28.53;50.31
44138;BME280;29800;55.942;37.314;2023-08-20T10:22:33;99590.53;;;28.56;51.06
44138;BME280;29800;55.942;37.314;2023-08-20T10:25:00;99582.00;;;28.53;49.28
44138;BME280;29800;55.942;37.314;2023-08-20T10:27:32;99571.13;;;28.51;51.54
44138;BME280;29800;55.942;37.314;2023-08-20T10:30:00;99570.47;;;28.58;51.19
44138;BME280;29800;55.942;37.314;2023-08-20T10:32:49;99568.22;;;28.67;50.30
44138;BME280;29800;55.942;37.314;2023-08-20T10:35:17;99568.97;;;28.64;49.52
44138;BME280;29800;55.942;37.314;2023-08-20T10:38:05;99557.50;;;28.76;49.50
44138;BME280;29800;55.942;37.314;2023-08-20T10:43:46;99562.06;;;28.85;48.39
44138;BME280;29800;55.942;37.314;2023-08-20T10:48:43;99558.78;;;28.83;50.64
44138;BME280;29800;55.942;37.314;2023-08-20T10:51:14;99550.06;;;28.88;48.63
44138;BME280;29800;55.942;37.314;2023-08-20T10:53:43;99539.53;;;28.85;48.36
44138;BME280;29800;55.942;37.314;2023-08-20T10:56:15;99548.78;;;28.85;48.85
44138;BME280;29800;55.942;37.314;2023-08-20T10:58:44;99543.09;;;28.82;47.77
44138;BME280;29800;55.942;37.314;2023-08-20T11:01:20;99549.91;;;28.81;48.05
44138;BME280;29800;55.942;37.314;2023-08-20T11:03:49;99542.88;;;28.67;48.00
44138;BME280;29800;55.942;37.314;2023-08-20T11:06:17;99545.25;;;28.65;49.47
44138;BME280;29800;55.942;37.314;2023-08-20T11:08:44;99544.38;;;28.61;49.63
44138;BME280;29800;55.942;37.314;2023-08-20T11:11:11;99537.28;;;28.48;49.91
44138;BME280;29800;55.942;37.314;2023-08-20T11:13:38;99538.09;;;28.25;50.98
44138;BME280;29800;55.942;37.314;2023-08-20T11:16:06;99538.03;;;27.98;52.15
44138;BME280;29800;55.942;37.314;2023-08-20T11:18:33;99544.00;;;27.77;53.81
44138;BME280;29800;55.942;37.314;2023-08-20T11:21:00;99542.84;;;27.59;56.32
44138;BME280;29800;55.942;37.314;2023-08-20T11:23:28;99538.50;;;27.42;57.37
44138;BME280;29800;55.942;37.314;2023-08-20T11:25:56;99536.34;;;27.19;57.65
44138;BME280;29800;55.942;37.314;2023-08-20T11:28:24;99531.13;;;27.02;58.73
44138;BME280;29800;55.942;37.314;2023-08-20T11:30:50;99544.41;;;26.85;58.55
44138;BME280;29800;55.942;37.314;2023-08-20T11:33:17;99538.56;;;26.74;59.41
44138;BME280;29800;55.942;37.314;2023-08-20T11:35:44;99535.91;;;26.66;59.19
44138;BME280;29800;55.942;37.314;2023-08-20T11:38:10;99532.00;;;26.54;59.69
44138;BME280;29800;55.942;37.314;2023-08-20T11:40:37;99523.31;;;26.44;59.73
44138;BME280;29800;55.942;37.314;2023-08-20T11:43:04;99522.31;;;26.36;59.72
44138;BME280;29800;55.942;37.314;2023-08-20T11:45:30;99517.72;;;26.28;60.19
44138;BME280;29800;55.942;37.314;2023-08-20T11:47:58;99517.06;;;26.18;61.93
44138;BME280;29800;55.942;37.314;2023-08-20T11:50:25;99524.13;;;26.12;61.02
44138;BME280;29800;55.942;37.314;2023-08-20T11:52:52;99522.75;;;26.06;61.61
44138;BME280;29800;55.942;37.314;2023-08-20T11:55:24;99534.97;;;25.85;63.33
44138;BME280;29800;55.942;37.314;2023-08-20T11:57:53;99555.91;;;25.47;66.40
44138;BME280;29800;55.942;37.314;2023-08-20T12:00:27;99565.06;;;25.20;68.36
44138;BME280;29800;55.942;37.314;2023-08-20T12:02:54;99596.09;;;24.77;69.77
44138;BME280;29800;55.942;37.314;2023-08-20T12:05:28;99601.47;;;24.58;71.31
44138;BME280;29800;55.942;37.314;2023-08-20T12:07:56;99603.81;;;24.22;72.50
44138;BME280;29800;55.942;37.314;2023-08-20T12:10:24;99615.72;;;23.98;72.73
44138;BME280;29800;55.942;37.314;2023-08-20T12:12:51;99622.13;;;23.78;74.32
44138;BME280;29800;55.942;37.314;2023-08-20T12:15:19;99618.16;;;23.58;75.35
44138;BME280;29800;55.942;37.314;2023-08-20T12:18:02;99601.63;;;23.53;77.05
44138;BME280;29800;55.942;37.314;2023-08-20T12:20:35;99599.91;;;23.39;77.29
44138;BME280;29800;55.942;37.314;2023-08-20T12:23:04;99586.22;;;23.25;78.22
44138;BME280;29800;55.942;37.314;2023-08-20T12:25:31;99581.53;;;23.17;78.94
44138;BME280;29800;55.942;37.314;2023-08-20T12:28:03;99580.56;;;23.13;79.59
44138;BME280;29800;55.942;37.314;2023-08-20T12:30:31;99588.97;;;23.04;79.81
44138;BME280;29800;55.942;37.314;2023-08-20T12:32:58;99582.94;;;22.93;79.88
44138;BME280;29800;55.942;37.314;2023-08-20T12:35:24;99589.84;;;22.87;79.54
44138;BME280;29800;55.942;37.314;2023-08-20T12:37:50;99590.72;;;22.79;80.44
44138;BME280;29800;55.942;37.314;2023-08-20T12:40:17;99596.34;;;22.70;81.11
44138;BME280;29800;55.942;37.314;2023-08-20T12:42:45;99603.91;;;22.61;81.96
44138;BME280;29800;55.942;37.314;2023-08-20T12:45:11;99588.53;;;22.55;82.59
44138;BME280;29800;55.942;37.314;2023-08-20T12:47:39;99586.75;;;22.50;83.18
44138;BME280;29800;55.942;37.314;2023-08-20T12:50:06;99582.50;;;22.44;83.72
44138;BME280;29800;55.942;37.314;2023-08-20T12:52:33;99581.56;;;22.40;83.23
44138;BME280;29800;55.942;37.314;2023-08-20T12:54:59;99575.00;;;22.36;83.72
44138;BME280;29800;55.942;37.314;2023-08-20T12:57:25;99571.72;;;22.34;83.59
44138;BME280;29800;55.942;37.314;2023-08-20T12:59:52;99575.66;;;22.33;84.75
44138;BME280;29800;55.942;37.314;2023-08-20T13:02:19;99572.19;;;22.36;85.77
44138;BME280;29800;55.942;37.314;2023-08-20T13:04:46;99562.19;;;22.35;86.47
44138;BME280;29800;55.942;37.314;2023-08-20T13:07:13;99565.97;;;22.39;86.98